sensor_id;sensor_type;location;lat;lon;timestamp;noise_LAeq;noise_LA_min;noise_LA_max;noise_LA01;noise_LA95
47109;Laerm;32856;51.422;6.794;2023-12-04T00:02:05;56.15;43.77;73.70;;
47109;Laerm;32856;51.422;6.794;2023-12-04T00:04:32;53.19;45.04;60.70;;
47109;Laerm;32856;51.422;6.794;2023-12-04T00:07:01;52.14;45.83;60.68;;
47109;Laerm;32856;51.422;6.794;2023-12-04T00:09:28;59.27;47.83;78.19;;
47109;Laerm;32856;51.422;6.794;2023-12-04T00:11:56;51.84;43.81;60.09;;
47109;Laerm;32856;51.422;6.794;2023-12-04T00:14:23;50.24;43.86;59.11;;
47109;Laerm;32856;51.422;6.794;2023-12-04T00:16:51;53.16;46.18;73.48;;
47109;Laerm;32856;51.422;6.794;2023-12-04T00:19:18;54.57;45.07;71.60;;
47109;Laerm;32856;51.422;6.794;2023-12-04T00:21:45;49.20;44.43;59.92;;
47109;Laerm;32856;51.422;6.794;2023-12-04T00:24:14;55.03;44.19;72.31;;
47109;Laerm;32856;51.422;6.794;2023-12-04T00:26:41;49.79;43.58;59.73;;
47109;Laerm;32856;51.422;6.794;2023-12-04T00:29:09;50.35;44.73;61.98;;
47109;Laerm;32856;51.422;6.794;2023-12-04T00:31:36;53.87;46.07;68.90;;
47109;Laerm;32856;51.422;6.794;2023-12-04T00:34:03;51.90;46.57;61.44;;
47109;Laerm;32856;51.422;6.794;2023-12-04T00:36:31;50.94;43.24;68.60;;
47109;Laerm;32856;51.422;6.794;2023-12-04T00:38:58;51.44;44.51;57.38;;
47109;Laerm;32856;51.422;6.794;2023-12-04T00:41:27;49.03;41.75;56.26;;
47109;Laerm;32856;51.422;6.794;2023-12-04T00:43:54;48.33;42.82;57.78;;
47109;Laerm;32856;51.422;6.794;2023-12-04T00:46:22;50.58;44.47;58.64;;
47109;Laerm;32856;51.422;6.794;2023-12-04T00:48:49;53.85;45.33;68.68;;
47109;Laerm;32856;51.422;6.794;2023-12-04T00:51:16;53.22;42.09;67.42;;
47109;Laerm;32856;51.422;6.794;2023-12-04T00:53:44;49.87;44.15;61.73;;
47109;Laerm;32856;51.422;6.794;2023-12-04T00:56:11;52.19;45.01;58.58;;
47109;Laerm;32856;51.422;6.794;2023-12-04T00:58:40;49.89;42.59;64.67;;
47109;Laerm;32856;51.422;6.794;2023-12-04T01:01:07;48.22;43.28;58.97;;
47109;Laerm;32856;51.422;6.794;2023-12-04T01:03:35;49.58;43.72;58.25;;
47109;Laerm;32856;51.422;6.794;2023-12-04T01:06:02;46.60;40.89;56.49;;
47109;Laerm;32856;51.422;6.794;2023-12-04T01:08:30;54.53;42.71;75.29;;
47109;Laerm;32856;51.422;6.794;2023-12-04T01:10:57;52.11;43.46;66.12;;
47109;Laerm;32856;51.422;6.794;2023-12-04T01:13:24;52.68;44.69;69.31;;
47109;Laerm;32856;51.422;6.794;2023-12-04T01:15:53;55.64;44.27;72.97;;
47109;Laerm;32856;51.422;6.794;2023-12-04T01:18:20;49.72;42.35;66.27;;
47109;Laerm;32856;51.422;6.794;2023-12-04T01:20:48;49.58;43.77;58.94;;
47109;Laerm;32856;51.422;6.794;2023-12-04T01:23:15;50.52;42.76;62.15;;
47109;Laerm;32856;51.422;6.794;2023-12-04T01:25:43;47.40;42.59;54.65;;
47109;Laerm;32856;51.422;6.794;2023-12-04T01:28:10;49.39;43.46;55.76;;
47109;Laerm;32856;51.422;6.794;2023-12-04T01:30:38;49.29;44.35;55.47;;
47109;Laerm;32856;51.422;6.794;2023-12-04T01:33:06;51.23;44.15;57.85;;
47109;Laerm;32856;51.422;6.794;2023-12-04T01:35:34;49.29;44.69;57.45;;
47109;Laerm;32856;51.422;6.794;2023-12-04T01:38:01;50.80;44.76;58.92;;
47109;Laerm;32856;51.422;6.794;2023-12-04T01:40:29;51.20;43.99;58.78;;
47109;Laerm;32856;51.422;6.794;2023-12-04T01:42:56;49.94;45.86;59.01;;
47109;Laerm;32856;51.422;6.794;2023-12-04T01:45:23;47.39;41.96;53.53;;
47109;Laerm;32856;51.422;6.794;2023-12-04T01:47:51;49.45;44.15;56.91;;
47109;Laerm;32856;51.422;6.794;2023-12-04T01:50:20;52.05;44.80;63.55;;
47109;Laerm;32856;51.422;6.794;2023-12-04T01:52:47;57.20;48.16;73.91;;
47109;Laerm;32856;51.422;6.794;2023-12-04T01:55:14;51.95;45.23;65.27;;
47109;Laerm;32856;51.422;6.794;2023-12-04T01:57:42;50.53;44.27;62.03;;
47109;Laerm;32856;51.422;6.794;2023-12-04T02:00:10;52.99;45.27;60.19;;
47109;Laerm;32856;51.422;6.794;2023-12-04T02:02:38;55.45;46.35;69.46;;
47109;Laerm;32856;51.422;6.794;2023-12-04T02:05:06;58.54;46.95;76.88;;
47109;Laerm;32856;51.422;6.794;2023-12-04T02:07:36;49.87;43.81;59.57;;
47109;Laerm;32856;51.422;6.794;2023-12-04T02:10:04;58.27;46.28;76.39;;
47109;Laerm;32856;51.422;6.794;2023-12-04T02:12:32;51.44;44.45;63.87;;
47109;Laerm;32856;51.422;6.794;2023-12-04T02:15:00;55.02;44.39;69.17;;
47109;Laerm;32856;51.422;6.794;2023-12-04T02:17:27;51.90;42.88;63.79;;
47109;Laerm;32856;51.422;6.794;2023-12-04T02:19:55;54.03;45.91;70.15;;
47109;Laerm;32856;51.422;6.794;2023-12-04T02:22:23;55.06;44.69;71.83;;
47109;Laerm;32856;51.422;6.794;2023-12-04T02:24:51;56.27;48.39;72.37;;
47109;Laerm;32856;51.422;6.794;2023-12-04T02:27:25;54.53;45.11;69.96;;
47109;Laerm;32856;51.422;6.794;2023-12-04T02:29:55;55.21;44.97;72.08;;
47109;Laerm;32856;51.422;6.794;2023-12-04T02:32:23;49.62;42.59;57.75;;
47109;Laerm;32856;51.422;6.794;2023-12-04T02:34:51;51.16;44.87;58.45;;
47109;Laerm;32856;51.422;6.794;2023-12-04T02:37:20;51.37;45.77;62.96;;
47109;Laerm;32856;51.422;6.794;2023-12-04T02:39:48;51.89;47.38;61.13;;
47109;Laerm;32856;51.422;6.794;2023-12-04T02:42:20;53.00;45.94;68.00;;
47109;Laerm;32856;51.422;6.794;2023-12-04T02:44:47;52.27;45.60;58.10;;
47109;Laerm;32856;51.422;6.794;2023-12-04T02:47:16;54.11;47.74;63.64;;
47109;Laerm;32856;51.422;6.794;2023-12-04T02:49:42;54.33;49.04;67.55;;
47109;Laerm;32856;51.422;6.794;2023-12-04T02:52:09;52.32;47.67;59.17;;
47109;Laerm;32856;51.422;6.794;2023-12-04T02:54:37;51.43;44.87;60.09;;
47109;Laerm;32856;51.422;6.794;2023-12-04T02:57:04;57.00;46.07;73.33;;
47109;Laerm;32856;51.422;6.794;2023-12-04T02:59:33;52.76;45.91;61.51;;
47109;Laerm;32856;51.422;6.794;2023-12-04T03:02:00;52.35;47.40;60.92;;
47109;Laerm;32856;51.422;6.794;2023-12-04T03:04:28;53.18;47.70;63.20;;
47109;Laerm;32856;51.422;6.794;2023-12-04T03:06:55;53.40;48.43;65.38;;
47109;Laerm;32856;51.422;6.794;2023-12-04T03:09:23;57.73;45.69;75.51;;
47109;Laerm;32856;51.422;6.794;2023-12-04T03:12:10;55.49;47.72;71.51;;
47109;Laerm;32856;51.422;6.794;2023-12-04T03:14:39;64.23;47.42;81.11;;
47109;Laerm;32856;51.422;6.794;2023-12-04T03:17:07;59.08;49.29;70.95;;
47109;Laerm;32856;51.422;6.794;2023-12-04T03:19:34;53.82;47.84;66.84;;
47109;Laerm;32856;51.422;6.794;2023-12-04T03:22:01;59.96;48.68;75.94;;
47109;Laerm;32856;51.422;6.794;2023-12-04T03:24:29;53.20;45.60;64.88;;
47109;Laerm;32856;51.422;6.794;2023-12-04T03:26:56;54.14;47.02;72.00;;
47109;Laerm;32856;51.422;6.794;2023-12-04T03:29:23;54.96;48.90;65.31;;
47109;Laerm;32856;51.422;6.794;2023-12-04T03:31:52;54.45;49.12;60.78;;
47109;Laerm;32856;51.422;6.794;2023-12-04T03:34:19;58.01;50.50;73.66;;
47109;Laerm;32856;51.422;6.794;2023-12-04T03:36:47;54.85;50.40;64.98;;
47109;Laerm;32856;51.422;6.794;2023-12-04T03:39:14;58.47;49.62;73.77;;
47109;Laerm;32856;51.422;6.794;2023-12-04T03:41:41;58.97;49.18;73.93;;
47109;Laerm;32856;51.422;6.794;2023-12-04T03:44:09;60.99;52.31;77.21;;
47109;Laerm;32856;51.422;6.794;2023-12-04T03:46:36;64.92;51.76;81.61;;
47109;Laerm;32856;51.422;6.794;2023-12-04T03:49:06;62.58;49.95;79.62;;
47109;Laerm;32856;51.422;6.794;2023-12-04T03:51:33;56.37;49.20;69.18;;
47109;Laerm;32856;51.422;6.794;2023-12-04T03:54:00;55.63;50.57;62.64;;
47109;Laerm;32856;51.422;6.794;2023-12-04T03:56:28;61.34;51.68;78.20;;
47109;Laerm;32856;51.422;6.794;2023-12-04T03:58:55;60.42;50.80;76.00;;
47109;Laerm;32856;51.422;6.794;2023-12-04T04:01:22;54.87;51.11;62.28;;
47109;Laerm;32856;51.422;6.794;2023-12-04T04:03:50;59.65;50.85;74.89;;
47109;Laerm;32856;51.422;6.794;2023-12-04T04:06:18;57.19;51.97;67.34;;
47109;Laerm;32856;51.422;6.794;2023-12-04T04:08:46;61.55;52.24;74.44;;
47109;Laerm;32856;51.422;6.794;2023-12-04T04:11:13;57.62;52.07;65.78;;
47109;Laerm;32856;51.422;6.794;2023-12-04T04:13:40;60.18;51.33;75.40;;
47109;Laerm;32856;51.422;6.794;2023-12-04T04:16:12;64.73;52.11;78.33;;
47109;Laerm;32856;51.422;6.794;2023-12-04T04:18:39;60.96;50.68;73.99;;
47109;Laerm;32856;51.422;6.794;2023-12-04T04:21:07;59.76;52.52;74.54;;
47109;Laerm;32856;51.422;6.794;2023-12-04T04:23:35;61.33;52.72;75.42;;
47109;Laerm;32856;51.422;6.794;2023-12-04T04:26:03;61.09;53.19;78.23;;
47109;Laerm;32856;51.422;6.794;2023-12-04T04:28:30;62.94;54.69;75.01;;
47109;Laerm;32856;51.422;6.794;2023-12-04T04:30:58;61.15;52.00;74.72;;
47109;Laerm;32856;51.422;6.794;2023-12-04T04:33:26;61.62;52.43;74.51;;
47109;Laerm;32856;51.422;6.794;2023-12-04T04:35:53;61.13;52.56;74.48;;
47109;Laerm;32856;51.422;6.794;2023-12-04T04:38:20;58.50;51.82;71.17;;
47109;Laerm;32856;51.422;6.794;2023-12-04T04:40:49;61.88;53.59;75.50;;
47109;Laerm;32856;51.422;6.794;2023-12-04T04:43:18;60.36;52.29;72.97;;
47109;Laerm;32856;51.422;6.794;2023-12-04T04:45:46;67.20;54.80;80.57;;
47109;Laerm;32856;51.422;6.794;2023-12-04T04:48:13;63.17;53.81;78.75;;
47109;Laerm;32856;51.422;6.794;2023-12-04T04:50:40;64.60;53.35;76.42;;
47109;Laerm;32856;51.422;6.794;2023-12-04T04:53:08;63.95;53.30;79.04;;
47109;Laerm;32856;51.422;6.794;2023-12-04T04:55:35;60.57;53.79;73.73;;
47109;Laerm;32856;51.422;6.794;2023-12-04T04:58:11;62.22;54.66;75.54;;
47109;Laerm;32856;51.422;6.794;2023-12-04T05:00:39;61.52;52.96;73.13;;
47109;Laerm;32856;51.422;6.794;2023-12-04T05:03:06;63.90;53.25;75.24;;
47109;Laerm;32856;51.422;6.794;2023-12-04T05:05:34;61.68;53.66;76.45;;
47109;Laerm;32856;51.422;6.794;2023-12-04T05:08:01;63.28;53.97;74.38;;
47109;Laerm;32856;51.422;6.794;2023-12-04T05:10:28;62.17;53.33;75.55;;
47109;Laerm;32856;51.422;6.794;2023-12-04T05:12:56;60.20;53.05;74.73;;
47109;Laerm;32856;51.422;6.794;2023-12-04T05:15:24;63.33;53.35;80.65;;
47109;Laerm;32856;51.422;6.794;2023-12-04T05:17:52;66.52;54.05;79.29;;
47109;Laerm;32856;51.422;6.794;2023-12-04T05:20:19;66.37;53.99;78.46;;
47109;Laerm;32856;51.422;6.794;2023-12-04T05:22:47;63.36;53.42;76.39;;
47109;Laerm;32856;51.422;6.794;2023-12-04T05:25:15;63.79;54.05;76.03;;
47109;Laerm;32856;51.422;6.794;2023-12-04T05:27:42;64.45;53.96;77.59;;
47109;Laerm;32856;51.422;6.794;2023-12-04T05:30:12;66.26;54.58;78.38;;
47109;Laerm;32856;51.422;6.794;2023-12-04T05:32:40;66.52;54.70;82.49;;
47109;Laerm;32856;51.422;6.794;2023-12-04T05:35:08;64.29;54.39;74.80;;
47109;Laerm;32856;51.422;6.794;2023-12-04T05:37:35;62.20;54.83;74.51;;
47109;Laerm;32856;51.422;6.794;2023-12-04T05:40:03;62.79;53.93;74.65;;
47109;Laerm;32856;51.422;6.794;2023-12-04T05:42:31;62.40;54.27;74.72;;
47109;Laerm;32856;51.422;6.794;2023-12-04T05:44:58;62.23;53.84;74.51;;
47109;Laerm;32856;51.422;6.794;2023-12-04T05:47:26;61.50;54.00;72.91;;
47109;Laerm;32856;51.422;6.794;2023-12-04T05:49:55;66.31;54.46;79.74;;
47109;Laerm;32856;51.422;6.794;2023-12-04T05:52:22;62.38;54.68;71.96;;
47109;Laerm;32856;51.422;6.794;2023-12-04T05:54:50;64.14;55.62;74.73;;
47109;Laerm;32856;51.422;6.794;2023-12-04T05:57:17;63.81;54.38;80.09;;
47109;Laerm;32856;51.422;6.794;2023-12-04T05:59:44;65.75;54.95;78.39;;
47109;Laerm;32856;51.422;6.794;2023-12-04T06:02:12;62.68;53.50;74.38;;
47109;Laerm;32856;51.422;6.794;2023-12-04T06:04:41;67.68;55.37;82.97;;
47109;Laerm;32856;51.422;6.794;2023-12-04T06:07:10;64.57;53.94;75.68;;
47109;Laerm;32856;51.422;6.794;2023-12-04T06:09:37;66.30;53.25;78.61;;
47109;Laerm;32856;51.422;6.794;2023-12-04T06:12:05;65.22;53.56;75.52;;
47109;Laerm;32856;51.422;6.794;2023-12-04T06:14:34;63.12;54.16;74.41;;
47109;Laerm;32856;51.422;6.794;2023-12-04T06:17:02;66.13;54.11;78.22;;
47109;Laerm;32856;51.422;6.794;2023-12-04T06:19:29;64.55;53.25;75.18;;
47109;Laerm;32856;51.422;6.794;2023-12-04T06:21:57;65.62;54.11;76.29;;
47109;Laerm;32856;51.422;6.794;2023-12-04T06:24:26;64.64;53.39;75.19;;
47109;Laerm;32856;51.422;6.794;2023-12-04T06:26:53;68.64;55.51;83.66;;
47109;Laerm;32856;51.422;6.794;2023-12-04T06:29:21;64.40;54.46;75.60;;
47109;Laerm;32856;51.422;6.794;2023-12-04T06:31:48;65.86;53.85;78.36;;
47109;Laerm;32856;51.422;6.794;2023-12-04T06:34:16;65.70;55.67;78.80;;
47109;Laerm;32856;51.422;6.794;2023-12-04T06:36:44;66.76;56.79;78.49;;
47109;Laerm;32856;51.422;6.794;2023-12-04T06:39:11;64.67;54.73;75.79;;
47109;Laerm;32856;51.422;6.794;2023-12-04T06:41:41;67.76;54.14;83.99;;
47109;Laerm;32856;51.422;6.794;2023-12-04T06:44:09;66.73;54.17;75.42;;
47109;Laerm;32856;51.422;6.794;2023-12-04T06:46:38;65.80;52.84;75.58;;
47109;Laerm;32856;51.422;6.794;2023-12-04T06:49:05;66.54;52.66;75.06;;
47109;Laerm;32856;51.422;6.794;2023-12-04T06:51:33;63.47;53.76;74.03;;
47109;Laerm;32856;51.422;6.794;2023-12-04T06:54:01;71.34;53.46;86.70;;
47109;Laerm;32856;51.422;6.794;2023-12-04T06:56:28;66.68;54.45;83.00;;
47109;Laerm;32856;51.422;6.794;2023-12-04T06:58:57;66.19;55.25;76.12;;
47109;Laerm;32856;51.422;6.794;2023-12-04T07:01:24;66.25;54.09;79.17;;
47109;Laerm;32856;51.422;6.794;2023-12-04T07:03:52;65.79;53.82;76.45;;
47109;Laerm;32856;51.422;6.794;2023-12-04T07:06:19;68.45;55.54;83.09;;
47109;Laerm;32856;51.422;6.794;2023-12-04T07:08:46;65.93;53.22;78.12;;
47109;Laerm;32856;51.422;6.794;2023-12-04T07:11:14;66.54;53.72;76.24;;
47109;Laerm;32856;51.422;6.794;2023-12-04T07:13:42;64.26;54.20;74.60;;
47109;Laerm;32856;51.422;6.794;2023-12-04T07:16:11;63.10;51.78;75.43;;
47109;Laerm;32856;51.422;6.794;2023-12-04T07:18:38;67.35;54.11;85.36;;
47109;Laerm;32856;51.422;6.794;2023-12-04T07:21:06;67.24;54.01;87.17;;
47109;Laerm;32856;51.422;6.794;2023-12-04T07:23:33;65.43;53.85;76.14;;
47109;Laerm;32856;51.422;6.794;2023-12-04T07:26:01;66.80;53.57;83.09;;
47109;Laerm;32856;51.422;6.794;2023-12-04T07:28:28;65.51;55.20;78.17;;
47109;Laerm;32856;51.422;6.794;2023-12-04T07:30:55;66.77;53.16;77.02;;
47109;Laerm;32856;51.422;6.794;2023-12-04T07:33:24;65.29;52.28;76.20;;
47109;Laerm;32856;51.422;6.794;2023-12-04T07:35:52;65.81;53.77;79.85;;
47109;Laerm;32856;51.422;6.794;2023-12-04T07:38:19;65.15;52.11;79.57;;
47109;Laerm;32856;51.422;6.794;2023-12-04T07:40:46;65.09;52.68;79.19;;
47109;Laerm;32856;51.422;6.794;2023-12-04T07:43:14;64.68;54.13;75.51;;
47109;Laerm;32856;51.422;6.794;2023-12-04T07:45:41;65.45;53.79;76.59;;
47109;Laerm;32856;51.422;6.794;2023-12-04T07:48:09;64.20;53.93;77.90;;
47109;Laerm;32856;51.422;6.794;2023-12-04T07:50:38;66.88;54.33;76.33;;
47109;Laerm;32856;51.422;6.794;2023-12-04T07:53:05;66.16;55.61;76.70;;
47109;Laerm;32856;51.422;6.794;2023-12-04T07:55:34;66.64;54.29;82.25;;
47109;Laerm;32856;51.422;6.794;2023-12-04T07:58:01;68.25;55.43;83.16;;
47109;Laerm;32856;51.422;6.794;2023-12-04T08:00:28;66.18;54.01;80.33;;
47109;Laerm;32856;51.422;6.794;2023-12-04T08:02:56;63.56;55.43;73.45;;
47109;Laerm;32856;51.422;6.794;2023-12-04T08:05:23;65.17;54.60;75.96;;
47109;Laerm;32856;51.422;6.794;2023-12-04T08:07:52;66.88;54.77;78.47;;
47109;Laerm;32856;51.422;6.794;2023-12-04T08:10:19;67.22;54.35;82.71;;
47109;Laerm;32856;51.422;6.794;2023-12-04T08:12:49;65.59;55.49;75.84;;
47109;Laerm;32856;51.422;6.794;2023-12-04T08:15:16;66.19;52.98;77.84;;
47109;Laerm;32856;51.422;6.794;2023-12-04T08:17:44;65.36;55.12;81.10;;
47109;Laerm;32856;51.422;6.794;2023-12-04T08:20:11;64.78;55.62;75.51;;
47109;Laerm;32856;51.422;6.794;2023-12-04T08:22:43;66.78;55.24;78.05;;
47109;Laerm;32856;51.422;6.794;2023-12-04T08:25:12;66.80;55.30;77.40;;
47109;Laerm;32856;51.422;6.794;2023-12-04T08:27:39;65.88;54.64;81.91;;
47109;Laerm;32856;51.422;6.794;2023-12-04T08:30:07;64.89;54.36;80.43;;
47109;Laerm;32856;51.422;6.794;2023-12-04T08:32:34;64.35;55.14;75.72;;
47109;Laerm;32856;51.422;6.794;2023-12-04T08:35:02;67.05;53.64;82.76;;
47109;Laerm;32856;51.422;6.794;2023-12-04T08:37:31;66.20;54.41;82.77;;
47109;Laerm;32856;51.422;6.794;2023-12-04T08:39:58;63.25;52.84;74.99;;
47109;Laerm;32856;51.422;6.794;2023-12-04T08:42:27;64.55;54.32;75.57;;
47109;Laerm;32856;51.422;6.794;2023-12-04T08:44:55;63.95;54.14;76.55;;
47109;Laerm;32856;51.422;6.794;2023-12-04T08:47:22;65.05;53.77;75.46;;
47109;Laerm;32856;51.422;6.794;2023-12-04T08:49:50;68.31;52.92;85.54;;
47109;Laerm;32856;51.422;6.794;2023-12-04T08:52:18;66.41;55.73;78.49;;
47109;Laerm;32856;51.422;6.794;2023-12-04T08:54:45;64.32;55.83;75.37;;
47109;Laerm;32856;51.422;6.794;2023-12-04T08:57:12;66.12;55.98;76.60;;
47109;Laerm;32856;51.422;6.794;2023-12-04T08:59:41;64.74;53.24;76.11;;
47109;Laerm;32856;51.422;6.794;2023-12-04T09:02:08;64.53;53.47;76.76;;
47109;Laerm;32856;51.422;6.794;2023-12-04T09:04:36;65.79;53.81;77.59;;
47109;Laerm;32856;51.422;6.794;2023-12-04T09:07:04;66.75;52.79;81.23;;
47109;Laerm;32856;51.422;6.794;2023-12-04T09:09:34;63.68;51.03;75.22;;
47109;Laerm;32856;51.422;6.794;2023-12-04T09:12:02;65.73;53.34;84.74;;
47109;Laerm;32856;51.422;6.794;2023-12-04T09:14:29;64.56;53.66;78.05;;
47109;Laerm;32856;51.422;6.794;2023-12-04T09:16:58;65.43;55.01;76.05;;
47109;Laerm;32856;51.422;6.794;2023-12-04T09:19:26;66.53;55.77;75.66;;
47109;Laerm;32856;51.422;6.794;2023-12-04T09:21:53;68.02;54.49;84.79;;
47109;Laerm;32856;51.422;6.794;2023-12-04T09:24:28;65.28;54.98;80.77;;
47109;Laerm;32856;51.422;6.794;2023-12-04T09:26:57;64.25;55.94;75.30;;
47109;Laerm;32856;51.422;6.794;2023-12-04T09:29:24;64.31;53.39;75.16;;
47109;Laerm;32856;51.422;6.794;2023-12-04T09:31:52;66.83;54.09;78.11;;
47109;Laerm;32856;51.422;6.794;2023-12-04T09:34:21;64.84;54.36;79.04;;
47109;Laerm;32856;51.422;6.794;2023-12-04T09:36:48;64.74;53.61;74.97;;
47109;Laerm;32856;51.422;6.794;2023-12-04T09:39:17;66.74;53.35;90.29;;
47109;Laerm;32856;51.422;6.794;2023-12-04T09:41:45;64.09;52.72;78.63;;
47109;Laerm;32856;51.422;6.794;2023-12-04T09:44:12;64.68;54.79;75.57;;
47109;Laerm;32856;51.422;6.794;2023-12-04T09:46:40;63.67;54.89;74.63;;
47109;Laerm;32856;51.422;6.794;2023-12-04T09:49:08;66.16;54.20;79.96;;
47109;Laerm;32856;51.422;6.794;2023-12-04T09:51:37;62.57;52.98;75.89;;
47109;Laerm;32856;51.422;6.794;2023-12-04T09:54:05;64.42;54.26;76.47;;
47109;Laerm;32856;51.422;6.794;2023-12-04T09:56:33;63.74;55.24;79.57;;
47109;Laerm;32856;51.422;6.794;2023-12-04T09:59:00;64.42;54.45;74.46;;
47109;Laerm;32856;51.422;6.794;2023-12-04T10:01:28;64.30;53.70;74.01;;
47109;Laerm;32856;51.422;6.794;2023-12-04T10:03:56;64.56;54.72;76.27;;
47109;Laerm;32856;51.422;6.794;2023-12-04T10:06:25;64.39;55.64;74.05;;
47109;Laerm;32856;51.422;6.794;2023-12-04T10:08:55;66.83;55.56;77.05;;
47109;Laerm;32856;51.422;6.794;2023-12-04T10:11:24;65.04;54.32;76.20;;
47109;Laerm;32856;51.422;6.794;2023-12-04T10:13:53;65.60;56.03;76.74;;
47109;Laerm;32856;51.422;6.794;2023-12-04T10:16:33;62.74;53.56;77.25;;
47109;Laerm;32856;51.422;6.794;2023-12-04T10:19:17;65.53;54.16;79.59;;
47109;Laerm;32856;51.422;6.794;2023-12-04T10:21:45;61.31;53.48;73.95;;
47109;Laerm;32856;51.422;6.794;2023-12-04T10:24:26;65.46;53.85;78.36;;
47109;Laerm;32856;51.422;6.794;2023-12-04T10:26:54;64.26;53.62;76.30;;
47109;Laerm;32856;51.422;6.794;2023-12-04T10:29:22;62.71;52.72;75.21;;
47109;Laerm;32856;51.422;6.794;2023-12-04T10:31:49;63.88;53.15;73.41;;
47109;Laerm;32856;51.422;6.794;2023-12-04T10:34:18;65.25;54.21;80.69;;
47109;Laerm;32856;51.422;6.794;2023-12-04T10:36:47;64.36;54.71;75.44;;
47109;Laerm;32856;51.422;6.794;2023-12-04T10:39:14;64.53;53.02;79.72;;
47109;Laerm;32856;51.422;6.794;2023-12-04T10:41:44;63.76;54.27;76.12;;
47109;Laerm;32856;51.422;6.794;2023-12-04T10:44:15;61.11;52.77;70.87;;
47109;Laerm;32856;51.422;6.794;2023-12-04T10:46:43;65.34;53.17;75.08;;
47109;Laerm;32856;51.422;6.794;2023-12-04T10:49:13;64.50;54.33;77.20;;
47109;Laerm;32856;51.422;6.794;2023-12-04T10:51:41;65.05;54.09;80.02;;
47109;Laerm;32856;51.422;6.794;2023-12-04T10:54:11;66.33;54.68;81.00;;
47109;Laerm;32856;51.422;6.794;2023-12-04T10:56:39;64.64;55.17;75.16;;
47109;Laerm;32856;51.422;6.794;2023-12-04T10:59:10;66.16;55.10;78.35;;
47109;Laerm;32856;51.422;6.794;2023-12-04T11:01:37;63.44;54.93;76.60;;
47109;Laerm;32856;51.422;6.794;2023-12-04T11:04:06;64.50;55.01;77.01;;
47109;Laerm;32856;51.422;6.794;2023-12-04T11:06:34;66.46;54.57;77.16;;
47109;Laerm;32856;51.422;6.794;2023-12-04T11:09:03;66.11;56.18;77.95;;
47109;Laerm;32856;51.422;6.794;2023-12-04T11:11:34;64.93;55.90;75.00;;
47109;Laerm;32856;51.422;6.794;2023-12-04T11:14:04;67.11;54.12;82.32;;
47109;Laerm;32856;51.422;6.794;2023-12-04T11:16:34;66.35;55.66;78.37;;
47109;Laerm;32856;51.422;6.794;2023-12-04T11:19:06;63.72;55.11;75.15;;
47109;Laerm;32856;51.422;6.794;2023-12-04T11:21:38;64.43;55.18;76.01;;
47109;Laerm;32856;51.422;6.794;2023-12-04T11:24:06;64.11;55.28;75.53;;
47109;Laerm;32856;51.422;6.794;2023-12-04T11:26:34;66.38;54.03;83.74;;
47109;Laerm;32856;51.422;6.794;2023-12-04T11:29:02;65.93;55.61;77.03;;
47109;Laerm;32856;51.422;6.794;2023-12-04T11:31:30;65.75;55.44;76.79;;
47109;Laerm;32856;51.422;6.794;2023-12-04T11:34:02;67.18;53.79;81.75;;
47109;Laerm;32856;51.422;6.794;2023-12-04T11:36:30;64.59;53.40;76.50;;
47109;Laerm;32856;51.422;6.794;2023-12-04T11:38:58;66.66;56.07;76.98;;
47109;Laerm;32856;51.422;6.794;2023-12-04T11:41:27;65.17;55.74;75.50;;
47109;Laerm;32856;51.422;6.794;2023-12-04T11:43:55;65.16;55.09;78.77;;
47109;Laerm;32856;51.422;6.794;2023-12-04T11:46:23;63.49;55.14;76.52;;
47109;Laerm;32856;51.422;6.794;2023-12-04T11:48:53;64.99;54.04;76.15;;
47109;Laerm;32856;51.422;6.794;2023-12-04T11:54:10;63.81;54.79;76.72;;
47109;Laerm;32856;51.422;6.794;2023-12-04T11:56:37;66.05;55.35;75.89;;
47109;Laerm;32856;51.422;6.794;2023-12-04T11:59:05;65.95;55.21;75.82;;
47109;Laerm;32856;51.422;6.794;2023-12-04T12:01:33;66.14;52.67;85.15;;
47109;Laerm;32856;51.422;6.794;2023-12-04T12:04:01;65.33;54.22;85.86;;
47109;Laerm;32856;51.422;6.794;2023-12-04T12:06:28;67.02;55.63;78.72;;
47109;Laerm;32856;51.422;6.794;2023-12-04T12:08:56;65.28;53.89;75.82;;
47109;Laerm;32856;51.422;6.794;2023-12-04T12:11:25;65.69;52.88;77.81;;
47109;Laerm;32856;51.422;6.794;2023-12-04T12:13:53;64.82;54.37;75.98;;
47109;Laerm;32856;51.422;6.794;2023-12-04T12:16:20;64.80;53.96;76.49;;
47109;Laerm;32856;51.422;6.794;2023-12-04T12:18:48;63.47;53.00;75.40;;
47109;Laerm;32856;51.422;6.794;2023-12-04T12:21:15;64.33;53.82;76.06;;
47109;Laerm;32856;51.422;6.794;2023-12-04T12:23:44;68.15;55.21;84.78;;
47109;Laerm;32856;51.422;6.794;2023-12-04T12:26:11;67.13;52.09;77.82;;
47109;Laerm;32856;51.422;6.794;2023-12-04T12:28:40;63.59;53.01;75.42;;
47109;Laerm;32856;51.422;6.794;2023-12-04T12:31:07;61.32;52.84;73.97;;
47109;Laerm;32856;51.422;6.794;2023-12-04T12:33:34;64.68;52.40;74.95;;
47109;Laerm;32856;51.422;6.794;2023-12-04T12:36:02;66.88;51.90;79.73;;
47109;Laerm;32856;51.422;6.794;2023-12-04T12:38:30;62.98;54.44;73.04;;
47109;Laerm;32856;51.422;6.794;2023-12-04T12:43:28;65.02;53.27;76.79;;
47109;Laerm;32856;51.422;6.794;2023-12-04T12:45:56;66.09;53.56;76.11;;
47109;Laerm;32856;51.422;6.794;2023-12-04T12:48:24;66.95;52.74;78.50;;
47109;Laerm;32856;51.422;6.794;2023-12-04T12:50:55;66.38;52.70;75.74;;
47109;Laerm;32856;51.422;6.794;2023-12-04T12:53:22;65.76;53.20;76.71;;
47109;Laerm;32856;51.422;6.794;2023-12-04T12:55:50;65.47;54.16;77.23;;
47109;Laerm;32856;51.422;6.794;2023-12-04T12:58:17;67.48;54.19;82.39;;
47109;Laerm;32856;51.422;6.794;2023-12-04T13:00:47;68.24;55.53;77.40;;
47109;Laerm;32856;51.422;6.794;2023-12-04T13:03:15;65.25;53.88;79.20;;
47109;Laerm;32856;51.422;6.794;2023-12-04T13:05:43;67.00;54.17;79.24;;
47109;Laerm;32856;51.422;6.794;2023-12-04T13:08:11;65.46;54.19;75.67;;
47109;Laerm;32856;51.422;6.794;2023-12-04T13:10:39;66.17;54.82;79.75;;
47109;Laerm;32856;51.422;6.794;2023-12-04T13:13:09;64.25;54.29;75.07;;
47109;Laerm;32856;51.422;6.794;2023-12-04T13:15:37;66.27;55.83;76.85;;
47109;Laerm;32856;51.422;6.794;2023-12-04T13:18:04;66.94;54.97;77.75;;
47109;Laerm;32856;51.422;6.794;2023-12-04T13:20:33;66.11;52.04;78.87;;
47109;Laerm;32856;51.422;6.794;2023-12-04T13:23:01;65.19;52.40;77.02;;
47109;Laerm;32856;51.422;6.794;2023-12-04T13:25:28;66.54;52.09;77.41;;
47109;Laerm;32856;51.422;6.794;2023-12-04T13:27:56;64.98;52.24;76.38;;
47109;Laerm;32856;51.422;6.794;2023-12-04T13:30:23;64.90;51.94;75.12;;
47109;Laerm;32856;51.422;6.794;2023-12-04T13:32:51;65.72;53.49;78.11;;
47109;Laerm;32856;51.422;6.794;2023-12-04T13:35:19;67.39;54.88;77.30;;
47109;Laerm;32856;51.422;6.794;2023-12-04T13:37:47;65.51;54.07;74.67;;
47109;Laerm;32856;51.422;6.794;2023-12-04T13:40:21;66.80;52.70;84.86;;
47109;Laerm;32856;51.422;6.794;2023-12-04T13:42:52;66.82;53.59;82.01;;
47109;Laerm;32856;51.422;6.794;2023-12-04T13:45:33;67.23;53.96;76.36;;
47109;Laerm;32856;51.422;6.794;2023-12-04T13:48:01;66.12;52.57;78.51;;
47109;Laerm;32856;51.422;6.794;2023-12-04T13:50:29;67.69;54.53;81.36;;
47109;Laerm;32856;51.422;6.794;2023-12-04T13:52:57;68.42;55.11;83.14;;
47109;Laerm;32856;51.422;6.794;2023-12-04T13:55:26;68.56;54.45;79.19;;